createdAt,value
2022-09-18T00:00:17.539Z,9.66
2022-09-18T00:03:25.849Z,9.64
2022-09-18T00:06:33.299Z,9.66
2022-09-18T00:09:38.928Z,9.64
2022-09-18T00:12:47.241Z,9.66
2022-09-18T00:15:54.634Z,9.64
2022-09-18T00:19:02.782Z,9.66
2022-09-18T00:22:11.043Z,9.67
2022-09-18T00:25:18.462Z,9.66
2022-09-18T00:28:26.825Z,9.64
2022-09-18T00:31:34.710Z,9.64
2022-09-18T00:34:42.414Z,9.61
2022-09-18T00:37:50.627Z,9.58
2022-09-18T00:40:58.534Z,9.63
2022-09-18T00:44:06.298Z,9.61
2022-09-18T00:47:14.188Z,9.60
2022-09-18T00:50:22.329Z,9.57
2022-09-18T00:53:30.148Z,9.56
2022-09-18T00:56:37.859Z,9.56
2022-09-18T00:59:46.020Z,9.56
2022-09-18T01:02:53.731Z,9.53
2022-09-18T01:06:01.341Z,9.52
2022-09-18T01:09:09.702Z,9.50
2022-09-18T01:12:17.083Z,9.52
2022-09-18T01:15:25.327Z,9.50
2022-09-18T01:18:33.382Z,9.49
2022-09-18T01:21:40.845Z,9.50
2022-09-18T01:24:48.896Z,9.46
2022-09-18T01:27:56.318Z,9.46
2022-09-18T01:31:04.442Z,9.43
2022-09-18T01:34:12.195Z,9.42
2022-09-18T01:37:19.998Z,9.40
2022-09-18T01:40:27.864Z,9.43
2022-09-18T01:43:35.167Z,9.45
2022-09-18T01:46:42.835Z,9.46
2022-09-18T01:49:50.570Z,9.46
2022-09-18T01:52:58.598Z,9.50
2022-09-18T01:56:06.380Z,9.52
2022-09-18T01:59:13.949Z,9.56
2022-09-18T02:02:21.885Z,9.57
2022-09-18T02:05:29.920Z,9.56
2022-09-18T02:08:37.803Z,9.57
2022-09-18T02:11:46.255Z,9.56
2022-09-18T02:14:53.706Z,9.57
2022-09-18T02:18:02.017Z,9.57
2022-09-18T02:21:10.266Z,9.57
2022-09-18T02:24:17.677Z,9.56
2022-09-18T02:27:25.926Z,9.56
2022-09-18T02:30:33.582Z,9.57
2022-09-18T02:33:41.299Z,9.60
2022-09-18T02:36:49.159Z,9.58
2022-09-18T02:39:56.909Z,9.63
2022-09-18T02:43:04.604Z,9.63
2022-09-18T02:46:12.505Z,9.64
2022-09-18T02:49:20.297Z,9.66
2022-09-18T02:52:28.001Z,9.64
2022-09-18T02:55:35.824Z,9.67
2022-09-18T02:58:43.994Z,9.67
2022-09-18T03:01:51.378Z,9.64
2022-09-18T03:04:59.183Z,9.64
2022-09-18T03:08:07.188Z,9.66
2022-09-18T03:11:15.054Z,9.63
2022-09-18T03:14:22.817Z,9.63
2022-09-18T03:17:31.107Z,9.63
2022-09-18T03:20:38.476Z,9.63
2022-09-18T03:23:46.619Z,9.63
2022-09-18T03:26:54.945Z,9.57
2022-09-18T03:30:02.302Z,9.49
2022-09-18T03:33:10.501Z,9.46
2022-09-18T03:36:18.841Z,9.46
2022-09-18T03:39:26.182Z,9.43
2022-09-18T03:42:34.262Z,9.45
2022-09-18T03:45:41.933Z,9.45
2022-09-18T03:48:49.285Z,9.45
2022-09-18T03:51:57.484Z,9.49
2022-09-18T03:55:04.785Z,9.49
2022-09-18T03:58:12.798Z,9.49
2022-09-18T04:01:21.220Z,9.50
2022-09-18T04:04:28.596Z,9.46
2022-09-18T04:07:36.967Z,9.43
2022-09-18T04:10:45.149Z,9.38
2022-09-18T04:13:52.478Z,9.32
2022-09-18T04:17:00.549Z,9.25
2022-09-18T04:20:08.340Z,9.25
2022-09-18T04:23:15.769Z,9.24
2022-09-18T04:26:23.509Z,9.23
2022-09-18T04:29:30.832Z,9.23
2022-09-18T04:32:38.532Z,9.21
2022-09-18T04:35:46.694Z,9.18
2022-09-18T04:38:54.564Z,9.15
2022-09-18T04:42:02.437Z,9.10
2022-09-18T04:45:10.764Z,9.10
2022-09-18T04:48:18.154Z,9.04
2022-09-18T04:51:26.242Z,9.04
2022-09-18T04:54:33.974Z,9.02
2022-09-18T04:57:41.688Z,9.06
2022-09-18T05:00:49.828Z,9.09
2022-09-18T05:03:57.697Z,9.05
2022-09-18T05:07:05.448Z,9.04
2022-09-18T05:10:13.519Z,9.05
2022-09-18T05:13:21.178Z,9.06
2022-09-18T05:16:28.957Z,9.12
2022-09-18T05:19:36.991Z,9.18
2022-09-18T05:22:44.854Z,9.23
2022-09-18T05:25:52.692Z,9.27
2022-09-18T05:29:00.092Z,9.32
2022-09-18T05:32:08.273Z,9.40
2022-09-18T05:35:16.084Z,9.49
2022-09-18T05:38:23.825Z,9.53
2022-09-18T05:41:31.956Z,9.50
2022-09-18T05:44:39.485Z,9.49
2022-09-18T05:47:47.106Z,9.43
2022-09-18T05:50:55.135Z,9.40
2022-09-18T05:54:02.563Z,9.40
2022-09-18T05:57:10.891Z,9.43
2022-09-18T06:00:18.969Z,9.46
2022-09-18T06:03:26.660Z,9.56
2022-09-18T06:06:34.909Z,9.61
2022-09-18T06:09:42.970Z,9.67
2022-09-18T06:12:50.381Z,9.73
2022-09-18T06:15:58.170Z,9.79
2022-09-18T06:19:06.313Z,9.88
2022-09-18T06:22:13.633Z,9.99
2022-09-18T06:25:21.811Z,10.04
2022-09-18T06:28:29.625Z,10.04
2022-09-18T06:31:37.414Z,10.04
2022-09-18T06:34:45.765Z,10.09
2022-09-18T06:37:54.116Z,10.17
2022-09-18T06:41:02.410Z,10.30
2022-09-18T06:44:10.746Z,10.47
2022-09-18T06:47:18.848Z,10.68
2022-09-18T06:50:26.718Z,10.81
2022-09-18T06:53:34.708Z,10.84
2022-09-18T06:56:43.640Z,10.83
2022-09-18T06:59:51.450Z,10.92
2022-09-18T07:02:59.311Z,10.95
2022-09-18T07:06:07.462Z,10.83
2022-09-18T07:09:15.936Z,10.73
2022-09-18T07:12:24.862Z,10.76
2022-09-18T07:15:34.155Z,10.81
2022-09-18T07:18:41.834Z,10.89
2022-09-18T07:21:49.558Z,11.01
2022-09-18T07:24:57.697Z,11.16
2022-09-18T07:28:05.125Z,11.32
2022-09-18T07:31:13.380Z,11.54
2022-09-18T07:34:21.077Z,11.87
2022-09-18T07:37:28.487Z,12.04
2022-09-18T07:40:36.270Z,12.05
2022-09-18T07:43:44.114Z,11.86
2022-09-18T07:46:51.610Z,11.68
2022-09-18T07:49:59.811Z,11.72
2022-09-18T07:53:07.662Z,11.70
2022-09-18T07:56:15.593Z,11.82
2022-09-18T07:59:23.894Z,11.96
2022-09-18T08:02:31.380Z,12.04
2022-09-18T08:05:39.556Z,12.08
2022-09-18T08:08:49.792Z,12.12
2022-09-18T08:11:48.384Z,12.33
2022-09-18T08:14:56.627Z,12.71
2022-09-18T08:18:04.458Z,12.74
2022-09-18T08:21:12.146Z,12.92
2022-09-18T08:24:20.317Z,12.87
2022-09-18T08:27:28.361Z,12.87
2022-09-18T08:30:36.061Z,12.97
2022-09-18T08:33:43.652Z,12.95
2022-09-18T08:36:51.683Z,13.00
2022-09-18T08:39:59.581Z,13.09
2022-09-18T08:43:07.619Z,13.12
2022-09-18T08:46:15.309Z,13.27
2022-09-18T08:49:23.047Z,13.49
2022-09-18T08:52:30.726Z,13.30
2022-09-18T08:55:39.047Z,12.81
2022-09-18T08:58:46.796Z,12.21
2022-09-18T09:01:54.496Z,11.78
2022-09-18T09:05:02.829Z,11.57
2022-09-18T09:08:10.230Z,11.39
2022-09-18T09:11:18.274Z,11.19
2022-09-18T09:14:45.786Z,11.13
2022-09-18T09:17:31.001Z,11.07
2022-09-18T09:20:39.224Z,11.02
2022-09-18T09:23:46.805Z,11.02
2022-09-18T09:26:54.962Z,11.16
2022-09-18T09:30:03.755Z,11.24
2022-09-18T09:33:11.226Z,11.38
2022-09-18T09:36:19.027Z,11.49
2022-09-18T09:39:26.935Z,11.57
2022-09-18T09:42:34.701Z,11.77
2022-09-18T09:45:42.189Z,11.93
2022-09-18T09:48:50.055Z,12.23
2022-09-18T09:51:57.868Z,12.44
2022-09-18T09:55:05.719Z,12.41
2022-09-18T09:58:13.438Z,12.30
2022-09-18T10:01:21.164Z,12.15
2022-09-18T10:04:28.533Z,12.08
2022-09-18T10:07:36.882Z,12.09
2022-09-18T10:10:44.584Z,12.08
2022-09-18T10:13:52.123Z,12.05
2022-09-18T10:17:00.236Z,12.33
2022-09-18T10:20:08.097Z,12.24
2022-09-18T10:23:15.634Z,12.29
2022-09-18T10:26:23.688Z,12.63
2022-09-18T10:29:35.611Z,12.93
2022-09-18T10:32:33.489Z,13.00
2022-09-18T10:35:41.100Z,12.85
2022-09-18T10:38:48.920Z,12.67
2022-09-18T10:41:56.676Z,12.63
2022-09-18T10:45:04.344Z,12.63
2022-09-18T10:48:12.524Z,12.69
2022-09-18T10:51:20.355Z,12.60
2022-09-18T10:54:28.136Z,12.69
2022-09-18T10:57:35.907Z,12.95
2022-09-18T11:00:43.271Z,13.32
2022-09-18T11:03:51.437Z,13.54
2022-09-18T11:06:59.277Z,13.87
2022-09-18T11:10:06.649Z,13.81
2022-09-18T11:13:14.171Z,13.80
2022-09-18T11:16:21.707Z,13.96
2022-09-18T11:19:30.972Z,14.28
2022-09-18T11:22:39.133Z,14.29
2022-09-18T11:25:46.395Z,14.01
2022-09-18T11:28:54.395Z,13.69
2022-09-18T11:32:02.205Z,13.33
2022-09-18T11:35:09.617Z,13.49
2022-09-18T11:38:17.707Z,13.52
2022-09-18T11:41:25.345Z,13.43
2022-09-18T11:44:33.128Z,13.20
2022-09-18T11:47:41.160Z,13.21
2022-09-18T11:50:49.000Z,13.24
2022-09-18T11:53:56.311Z,13.09
2022-09-18T11:57:03.981Z,12.79
2022-09-18T12:00:12.390Z,12.54
2022-09-18T12:03:20.262Z,12.48
2022-09-18T12:06:27.916Z,12.49
2022-09-18T12:09:34.757Z,12.51
2022-09-18T12:12:42.215Z,12.41
2022-09-18T12:15:50.263Z,12.30
2022-09-18T12:18:57.931Z,12.44
2022-09-18T12:22:05.350Z,12.45
2022-09-18T12:25:13.435Z,12.34
2022-09-18T12:28:21.056Z,11.68
2022-09-18T12:31:29.349Z,10.66
2022-09-18T12:34:37.803Z,10.19
2022-09-18T12:37:45.101Z,9.83
2022-09-18T12:40:53.921Z,9.60
2022-09-18T12:44:01.569Z,9.32
2022-09-18T12:47:09.328Z,9.06
2022-09-18T12:50:17.294Z,9.02
2022-09-18T12:53:25.273Z,9.09
2022-09-18T12:56:33.203Z,9.09
2022-09-18T12:59:40.800Z,9.06
2022-09-18T13:02:51.341Z,9.04
2022-09-18T13:05:48.765Z,9.09
2022-09-18T13:08:49.443Z,9.05
2022-09-18T13:11:57.882Z,9.18
2022-09-18T13:15:05.330Z,9.20
2022-09-18T13:18:14.170Z,9.30
2022-09-18T13:21:22.137Z,9.50
2022-09-18T13:24:29.586Z,9.63
2022-09-18T13:27:37.745Z,9.96
2022-09-18T13:30:45.192Z,10.22
2022-09-18T13:33:53.032Z,10.36
2022-09-18T13:37:00.991Z,10.34
2022-09-18T13:40:10.986Z,10.32
2022-09-18T13:43:18.621Z,10.42
2022-09-18T13:46:26.457Z,10.28
2022-09-18T13:49:34.212Z,10.26
2022-09-18T13:52:41.783Z,10.19
2022-09-18T13:55:50.608Z,10.28
2022-09-18T13:58:59.473Z,10.43
2022-09-18T14:02:07.433Z,10.60
2022-09-18T14:05:15.430Z,11.10
2022-09-18T14:08:22.840Z,11.68
2022-09-18T14:11:31.081Z,11.90
2022-09-18T14:14:38.871Z,12.26
2022-09-18T14:17:46.612Z,12.27
2022-09-18T14:20:54.574Z,11.86
2022-09-18T14:24:02.150Z,11.44
2022-09-18T14:27:09.974Z,11.16
2022-09-18T14:30:17.731Z,10.39
2022-09-18T14:33:25.792Z,10.00
2022-09-18T14:36:33.323Z,9.82
2022-09-18T14:39:41.747Z,9.73
2022-09-18T14:42:49.417Z,9.68
2022-09-18T14:45:57.341Z,9.57
2022-09-18T14:49:05.630Z,9.45
2022-09-18T14:52:13.203Z,9.25
2022-09-18T14:55:21.842Z,9.06
2022-09-18T14:58:30.495Z,9.05
2022-09-18T15:01:37.915Z,9.04
2022-09-18T15:04:46.167Z,8.94
2022-09-18T15:07:54.097Z,8.94
2022-09-18T15:11:01.987Z,8.93
2022-09-18T15:14:10.142Z,8.81
2022-09-18T15:17:17.954Z,8.81
2022-09-18T15:20:25.876Z,8.86
2022-09-18T15:23:33.732Z,8.94
2022-09-18T15:26:41.465Z,8.99
2022-09-18T15:29:49.351Z,9.05
2022-09-18T15:32:56.965Z,9.06
2022-09-18T15:36:04.867Z,9.13
2022-09-18T15:39:13.032Z,9.13
2022-09-18T15:42:20.834Z,9.06
2022-09-18T15:45:28.704Z,9.23
2022-09-18T15:48:36.472Z,9.53
2022-09-18T15:51:44.341Z,9.63
2022-09-18T15:54:51.690Z,9.71
2022-09-18T15:58:00.087Z,9.70
2022-09-18T16:01:08.457Z,9.71
2022-09-18T16:04:15.961Z,9.71
2022-09-18T16:07:24.071Z,9.64
2022-09-18T16:10:31.821Z,9.63
2022-09-18T16:13:39.601Z,9.56
2022-09-18T16:16:48.091Z,9.38
2022-09-18T16:19:55.911Z,9.30
2022-09-18T16:23:04.211Z,9.23
2022-09-18T16:26:12.070Z,9.16
2022-09-18T16:29:20.063Z,9.10
2022-09-18T16:32:27.841Z,9.06
2022-09-18T16:35:36.296Z,9.05
2022-09-18T16:38:44.134Z,9.02
2022-09-18T16:41:52.062Z,8.96
2022-09-18T16:45:00.607Z,8.88
2022-09-18T16:48:08.617Z,8.87
2022-09-18T16:51:17.064Z,8.93
2022-09-18T16:54:24.588Z,8.93
2022-09-18T16:57:32.909Z,8.94
2022-09-18T17:00:40.975Z,8.88
2022-09-18T17:03:48.429Z,8.84
2022-09-18T17:06:56.971Z,8.86
2022-09-18T17:10:04.330Z,8.86
2022-09-18T17:13:12.870Z,8.87
2022-09-18T17:16:35.488Z,8.87
2022-09-18T17:19:25.791Z,8.79
2022-09-18T17:22:34.081Z,8.75
2022-09-18T17:25:42.324Z,8.76
2022-09-18T17:28:49.763Z,8.76
2022-09-18T17:31:58.325Z,8.81
2022-09-18T17:35:06.254Z,8.86
2022-09-18T17:38:15.247Z,8.91
2022-09-18T17:41:23.846Z,8.97
2022-09-18T17:44:31.586Z,9.01
2022-09-18T17:47:39.628Z,9.02
2022-09-18T17:50:48.247Z,9.09
2022-09-18T17:53:56.049Z,9.06
2022-09-18T17:57:04.570Z,9.13
2022-09-18T18:00:12.074Z,9.16
2022-09-18T18:03:20.792Z,9.12
2022-09-18T18:06:28.892Z,9.05
2022-09-18T18:09:37.129Z,9.05
2022-09-18T18:12:45.333Z,9.02
2022-09-18T18:15:53.515Z,9.02
2022-09-18T18:19:01.788Z,9.04
2022-09-18T18:22:09.816Z,9.01
2022-09-18T18:25:18.166Z,8.96
2022-09-18T18:28:26.386Z,8.97
2022-09-18T18:31:34.688Z,8.99
2022-09-18T18:34:42.911Z,8.97
2022-09-18T18:37:51.357Z,9.02
2022-09-18T18:40:59.522Z,9.04
2022-09-18T18:44:08.168Z,9.05
2022-09-18T18:47:16.374Z,9.10
2022-09-18T18:50:24.440Z,9.15
2022-09-18T18:53:32.729Z,9.21
2022-09-18T18:56:40.682Z,9.23
2022-09-18T18:59:48.761Z,9.27
2022-09-18T19:02:56.819Z,9.30
2022-09-18T19:06:05.543Z,9.34
2022-09-18T19:09:15.950Z,9.40
2022-09-18T19:12:16.012Z,9.40
2022-09-18T19:15:24.424Z,9.46
2022-09-18T19:18:32.004Z,9.49
2022-09-18T19:21:40.345Z,9.53
2022-09-18T19:24:48.515Z,9.58
2022-09-18T19:27:56.175Z,9.58
2022-09-18T19:31:04.487Z,9.58
2022-09-18T19:34:12.089Z,9.58
2022-09-18T19:37:20.136Z,9.61
2022-09-18T19:40:28.676Z,9.60
2022-09-18T19:43:36.147Z,9.64
2022-09-18T19:46:44.722Z,9.64
2022-09-18T19:49:52.951Z,9.63
2022-09-18T19:53:00.443Z,9.61
2022-09-18T19:56:22.667Z,9.61
2022-09-18T19:59:13.770Z,9.64
2022-09-18T20:02:21.761Z,9.64
2022-09-18T20:05:30.135Z,9.64
2022-09-18T20:08:38.075Z,9.66
2022-09-18T20:11:48.224Z,9.66
2022-09-18T20:14:46.066Z,9.66
2022-09-18T20:17:53.865Z,9.67
2022-09-18T20:21:02.495Z,9.70
2022-09-18T20:24:10.829Z,9.71
2022-09-18T20:27:18.481Z,9.70
2022-09-18T20:30:26.179Z,9.73
2022-09-18T20:33:33.821Z,9.75
2022-09-18T20:36:42.301Z,9.73
2022-09-18T20:39:51.802Z,9.71
2022-09-18T20:43:00.265Z,9.73
2022-09-18T20:46:08.676Z,9.70
2022-09-18T20:49:17.185Z,9.71
2022-09-18T20:52:24.944Z,9.71
2022-09-18T20:55:32.936Z,9.67
2022-09-18T20:58:40.975Z,9.64
2022-09-18T21:01:49.382Z,9.63
2022-09-18T21:04:57.065Z,9.61
2022-09-18T21:08:04.889Z,9.60
2022-09-18T21:11:12.506Z,9.60
2022-09-18T21:14:20.693Z,9.61
2022-09-18T21:17:28.351Z,9.61
2022-09-18T21:20:35.894Z,9.63
2022-09-18T21:23:43.797Z,9.64
2022-09-18T21:26:52.063Z,9.67
2022-09-18T21:30:00.025Z,9.71
2022-09-18T21:33:07.974Z,9.73
2022-09-18T21:36:16.257Z,9.75
2022-09-18T21:39:24.106Z,9.79
2022-09-18T21:42:31.977Z,9.78
2022-09-18T21:45:40.409Z,9.79
2022-09-18T21:48:48.200Z,9.82
2022-09-18T21:51:55.929Z,9.83
2022-09-18T21:55:04.224Z,9.82
2022-09-18T21:58:11.722Z,9.82
2022-09-18T22:01:19.996Z,9.81
2022-09-18T22:04:28.137Z,9.82
2022-09-18T22:07:35.484Z,9.83
2022-09-18T22:10:43.524Z,9.83
2022-09-18T22:13:51.283Z,9.82
2022-09-18T22:16:58.966Z,9.83
2022-09-18T22:20:07.219Z,9.83
2022-09-18T22:23:14.977Z,9.82
2022-09-18T22:26:22.676Z,9.85
2022-09-18T22:29:30.699Z,9.86
2022-09-18T22:32:38.269Z,9.88
2022-09-18T22:35:46.000Z,9.86
2022-09-18T22:38:53.677Z,9.86
2022-09-18T22:42:01.342Z,9.83
2022-09-18T22:45:09.630Z,9.85
2022-09-18T22:48:17.469Z,9.83
2022-09-18T22:51:25.163Z,9.83
2022-09-18T22:54:32.840Z,9.85
2022-09-18T22:57:40.654Z,9.83
2022-09-18T23:00:48.365Z,9.83
2022-09-18T23:03:55.751Z,9.82
2022-09-18T23:07:04.366Z,9.81
2022-09-18T23:10:13.716Z,9.82
2022-09-18T23:13:21.858Z,9.85
2022-09-18T23:16:29.994Z,9.83
2022-09-18T23:19:37.979Z,9.83
2022-09-18T23:22:45.417Z,9.83
2022-09-18T23:25:53.420Z,9.85
2022-09-18T23:29:01.470Z,9.91
2022-09-18T23:32:08.929Z,9.94
2022-09-18T23:35:17.272Z,9.91
2022-09-18T23:38:24.753Z,9.89
2022-09-18T23:41:33.093Z,9.91
2022-09-18T23:44:41.524Z,9.88
2022-09-18T23:47:49.024Z,9.91
2022-09-18T23:50:57.482Z,9.91
2022-09-18T23:54:05.615Z,9.91
2022-09-18T23:57:13.066Z,9.93
